This is the latest recevied weather packets stored in our database for station/object SP3SWJ-13. If no packets are shown the sender has not sent any weather packets the latest 10 day(s).
| Time | Temp. | Humidity | Pressure | Rain* | Wind** | Luminosity | Snow |
|---|---|---|---|---|---|---|---|
| 1777814791 | 28.89° C | 22% | 1003.6 hPa | - | - | 540 W/m² | - |
| 1777814490 | 28.89° C | 21% | 1003.6 hPa | - | - | 551 W/m² | - |
| 1777814189 | 28.89° C | 21% | 1003.7 hPa | - | - | 558 W/m² | - |
| 1777813888 | 28.33° C | 22% | 1003.7 hPa | - | - | 561 W/m² | - |
| 1777813587 | 27.78° C | 22% | 1003.7 hPa | - | - | 577 W/m² | - |
| 1777813286 | 28.33° C | 22% | 1003.9 hPa | - | - | 589 W/m² | - |
| 1777812986 | 28.89° C | 22% | 1004.1 hPa | - | - | 598 W/m² | - |
| 1777812685 | 27.78° C | 22% | 1004 hPa | - | - | 606 W/m² | - |
| 1777812384 | 27.22° C | 22% | 1004 hPa | - | - | 610 W/m² | - |
| 1777812083 | 27.78° C | 23% | 1004.1 hPa | - | - | 626 W/m² | - |
| 1777811782 | 27.78° C | 22% | 1004.1 hPa | - | - | 627 W/m² | - |
| 1777811481 | 27.78° C | 22% | 1004.1 hPa | - | - | 628 W/m² | - |
| 1777811180 | 27.78° C | 23% | 1004.2 hPa | - | - | 633 W/m² | - |
| 1777810879 | 28.33° C | 22% | 1004.3 hPa | - | - | 639 W/m² | - |
| 1777810578 | 27.78° C | 21% | 1004.3 hPa | - | - | 657 W/m² | - |
| 1777810277 | 27.78° C | 22% | 1004.3 hPa | - | - | 665 W/m² | - |
| 1777809976 | 28.33° C | 22% | 1004.5 hPa | - | - | 671 W/m² | - |
| 1777809675 | 27.78° C | 23% | 1004.4 hPa | - | - | 683 W/m² | - |
| 1777809375 | 28.33° C | 22% | 1004.4 hPa | - | - | 695 W/m² | - |
| 1777809074 | 27.78° C | 23% | 1004.4 hPa | - | - | 706 W/m² | - |
| 1777808773 | 28.33° C | 21% | 1004.5 hPa | - | - | 701 W/m² | - |
| 1777808472 | 28.33° C | 21% | 1004.5 hPa | - | - | 706 W/m² | - |
| 1777808171 | 27.22° C | 23% | 1004.6 hPa | - | - | 716 W/m² | - |
| 1777807870 | 26.67° C | 24% | 1004.6 hPa | - | - | 721 W/m² | - |
| 1777807569 | 27.22° C | 23% | 1004.8 hPa | - | - | 722 W/m² | - |
* Rain since midnight (hover to see other rain measurements)
** Current wind speed in m/s (hover to see current wind gust speed)